sensor_id;sensor_type;location;lat;lon;timestamp;temperature;humidity
12622;DHT22;6376;48.182;-1.644;2023-02-28T00:00:13;9.40;62.70
12622;DHT22;6376;48.182;-1.644;2023-02-28T00:02:41;9.40;62.70
12622;DHT22;6376;48.182;-1.644;2023-02-28T00:05:08;9.30;62.70
12622;DHT22;6376;48.182;-1.644;2023-02-28T00:07:34;9.40;62.80
12622;DHT22;6376;48.182;-1.644;2023-02-28T00:10:00;9.30;62.80
12622;DHT22;6376;48.182;-1.644;2023-02-28T00:12:26;9.30;62.70
12622;DHT22;6376;48.182;-1.644;2023-02-28T00:14:52;9.40;62.80
12622;DHT22;6376;48.182;-1.644;2023-02-28T00:17:18;9.30;62.80
12622;DHT22;6376;48.182;-1.644;2023-02-28T00:19:47;9.30;62.90
12622;DHT22;6376;48.182;-1.644;2023-02-28T00:22:14;9.30;62.90
12622;DHT22;6376;48.182;-1.644;2023-02-28T00:24:40;9.30;63.00
12622;DHT22;6376;48.182;-1.644;2023-02-28T00:27:06;9.30;63.00
12622;DHT22;6376;48.182;-1.644;2023-02-28T00:29:31;9.30;63.00
12622;DHT22;6376;48.182;-1.644;2023-02-28T00:31:57;9.30;63.00
12622;DHT22;6376;48.182;-1.644;2023-02-28T00:34:23;9.30;63.10
12622;DHT22;6376;48.182;-1.644;2023-02-28T00:36:48;9.30;63.10
12622;DHT22;6376;48.182;-1.644;2023-02-28T00:39:14;9.30;63.10
12622;DHT22;6376;48.182;-1.644;2023-02-28T00:41:40;9.30;63.10
12622;DHT22;6376;48.182;-1.644;2023-02-28T00:44:05;9.30;63.20
12622;DHT22;6376;48.182;-1.644;2023-02-28T00:46:31;9.30;63.30
12622;DHT22;6376;48.182;-1.644;2023-02-28T00:48:56;9.30;63.30
12622;DHT22;6376;48.182;-1.644;2023-02-28T00:51:22;9.30;63.30
12622;DHT22;6376;48.182;-1.644;2023-02-28T00:53:48;9.20;63.30
12622;DHT22;6376;48.182;-1.644;2023-02-28T00:56:13;9.20;63.30
12622;DHT22;6376;48.182;-1.644;2023-02-28T00:58:39;9.20;63.30
12622;DHT22;6376;48.182;-1.644;2023-02-28T01:01:05;9.20;63.30
12622;DHT22;6376;48.182;-1.644;2023-02-28T01:03:31;9.20;63.30
12622;DHT22;6376;48.182;-1.644;2023-02-28T01:05:57;9.20;63.30
12622;DHT22;6376;48.182;-1.644;2023-02-28T01:08:23;9.20;63.30
12622;DHT22;6376;48.182;-1.644;2023-02-28T01:10:49;9.20;63.40
12622;DHT22;6376;48.182;-1.644;2023-02-28T01:13:15;9.20;63.30
12622;DHT22;6376;48.182;-1.644;2023-02-28T01:15:45;9.20;63.40
12622;DHT22;6376;48.182;-1.644;2023-02-28T01:18:12;9.20;63.40
12622;DHT22;6376;48.182;-1.644;2023-02-28T01:20:38;9.20;63.40
12622;DHT22;6376;48.182;-1.644;2023-02-28T01:23:04;9.20;63.40
12622;DHT22;6376;48.182;-1.644;2023-02-28T01:25:29;9.20;63.40
12622;DHT22;6376;48.182;-1.644;2023-02-28T01:27:55;9.20;63.30
12622;DHT22;6376;48.182;-1.644;2023-02-28T01:30:21;9.20;63.30
12622;DHT22;6376;48.182;-1.644;2023-02-28T01:32:46;9.20;63.30
12622;DHT22;6376;48.182;-1.644;2023-02-28T01:35:12;9.20;63.30
12622;DHT22;6376;48.182;-1.644;2023-02-28T01:37:38;9.20;63.40
12622;DHT22;6376;48.182;-1.644;2023-02-28T01:40:04;9.20;63.40
12622;DHT22;6376;48.182;-1.644;2023-02-28T01:42:30;9.20;63.50
12622;DHT22;6376;48.182;-1.644;2023-02-28T01:45:04;9.10;63.40
12622;DHT22;6376;48.182;-1.644;2023-02-28T01:47:36;9.10;63.40
12622;DHT22;6376;48.182;-1.644;2023-02-28T01:50:07;9.10;63.40
12622;DHT22;6376;48.182;-1.644;2023-02-28T01:52:35;9.10;63.50
12622;DHT22;6376;48.182;-1.644;2023-02-28T01:55:02;9.10;63.40
12622;DHT22;6376;48.182;-1.644;2023-02-28T01:57:34;9.10;63.50
12622;DHT22;6376;48.182;-1.644;2023-02-28T02:00:14;9.10;63.50
12622;DHT22;6376;48.182;-1.644;2023-02-28T02:02:46;9.10;63.50
12622;DHT22;6376;48.182;-1.644;2023-02-28T02:05:16;9.10;63.50
12622;DHT22;6376;48.182;-1.644;2023-02-28T02:07:45;9.10;63.60
12622;DHT22;6376;48.182;-1.644;2023-02-28T02:10:27;9.10;63.60
12622;DHT22;6376;48.182;-1.644;2023-02-28T02:18:33;9.10;63.60
12622;DHT22;6376;48.182;-1.644;2023-02-28T02:26:46;9.10;63.60
12622;DHT22;6376;48.182;-1.644;2023-02-28T02:35:05;9.10;63.70
12622;DHT22;6376;48.182;-1.644;2023-02-28T02:45:19;9.00;63.70
12622;DHT22;6376;48.182;-1.644;2023-02-28T02:47:47;9.00;63.70
12622;DHT22;6376;48.182;-1.644;2023-02-28T02:50:19;9.00;63.70
12622;DHT22;6376;48.182;-1.644;2023-02-28T02:52:50;9.00;63.70
12622;DHT22;6376;48.182;-1.644;2023-02-28T02:55:18;9.00;63.80
12622;DHT22;6376;48.182;-1.644;2023-02-28T02:57:58;9.00;63.80
12622;DHT22;6376;48.182;-1.644;2023-02-28T03:00:31;9.00;63.80
12622;DHT22;6376;48.182;-1.644;2023-02-28T03:02:58;9.00;63.80
12622;DHT22;6376;48.182;-1.644;2023-02-28T03:05:35;9.00;63.90
12622;DHT22;6376;48.182;-1.644;2023-02-28T03:08:04;9.00;63.90
12622;DHT22;6376;48.182;-1.644;2023-02-28T03:10:37;9.00;64.00
12622;DHT22;6376;48.182;-1.644;2023-02-28T03:16:05;9.00;64.00
12622;DHT22;6376;48.182;-1.644;2023-02-28T03:18:56;8.90;63.90
12622;DHT22;6376;48.182;-1.644;2023-02-28T03:21:31;9.00;64.00
12622;DHT22;6376;48.182;-1.644;2023-02-28T03:26:34;9.00;64.00
12622;DHT22;6376;48.182;-1.644;2023-02-28T03:30:03;9.00;64.10
12622;DHT22;6376;48.182;-1.644;2023-02-28T03:35:02;8.90;64.00
12622;DHT22;6376;48.182;-1.644;2023-02-28T03:37:32;8.90;64.00
12622;DHT22;6376;48.182;-1.644;2023-02-28T03:40:10;8.90;64.10
12622;DHT22;6376;48.182;-1.644;2023-02-28T03:42:40;8.90;64.00
12622;DHT22;6376;48.182;-1.644;2023-02-28T03:45:19;8.90;64.00
12622;DHT22;6376;48.182;-1.644;2023-02-28T03:48:08;8.90;64.10
12622;DHT22;6376;48.182;-1.644;2023-02-28T03:50:40;8.90;64.10
12622;DHT22;6376;48.182;-1.644;2023-02-28T03:55:43;8.90;64.10
12622;DHT22;6376;48.182;-1.644;2023-02-28T04:00:49;8.90;64.10
12622;DHT22;6376;48.182;-1.644;2023-02-28T04:03:17;8.90;64.30
12622;DHT22;6376;48.182;-1.644;2023-02-28T04:05:54;8.90;64.20
12622;DHT22;6376;48.182;-1.644;2023-02-28T04:08:22;8.90;64.20
12622;DHT22;6376;48.182;-1.644;2023-02-28T04:11:06;8.90;64.30
12622;DHT22;6376;48.182;-1.644;2023-02-28T04:13:33;8.80;64.20
12622;DHT22;6376;48.182;-1.644;2023-02-28T04:15:59;8.80;64.20
12622;DHT22;6376;48.182;-1.644;2023-02-28T04:18:25;8.80;64.20
12622;DHT22;6376;48.182;-1.644;2023-02-28T04:20:50;8.80;64.20
12622;DHT22;6376;48.182;-1.644;2023-02-28T04:23:16;8.80;64.30
12622;DHT22;6376;48.182;-1.644;2023-02-28T04:25:42;8.80;64.30
12622;DHT22;6376;48.182;-1.644;2023-02-28T04:28:07;8.80;64.30
12622;DHT22;6376;48.182;-1.644;2023-02-28T04:30:33;8.80;64.30
12622;DHT22;6376;48.182;-1.644;2023-02-28T04:33:00;8.80;64.30
12622;DHT22;6376;48.182;-1.644;2023-02-28T04:35:25;8.80;64.30
12622;DHT22;6376;48.182;-1.644;2023-02-28T04:37:51;8.80;64.30
12622;DHT22;6376;48.182;-1.644;2023-02-28T04:40:17;8.80;64.30
12622;DHT22;6376;48.182;-1.644;2023-02-28T04:42:42;8.80;64.30
12622;DHT22;6376;48.182;-1.644;2023-02-28T04:45:08;8.80;64.30
12622;DHT22;6376;48.182;-1.644;2023-02-28T04:47:36;8.80;64.30
12622;DHT22;6376;48.182;-1.644;2023-02-28T04:50:02;8.80;64.40
12622;DHT22;6376;48.182;-1.644;2023-02-28T04:52:29;8.80;64.30
12622;DHT22;6376;48.182;-1.644;2023-02-28T04:54:55;8.80;64.30
12622;DHT22;6376;48.182;-1.644;2023-02-28T04:57:20;8.70;64.30
12622;DHT22;6376;48.182;-1.644;2023-02-28T04:59:46;8.70;64.20
12622;DHT22;6376;48.182;-1.644;2023-02-28T05:02:11;8.80;64.40
12622;DHT22;6376;48.182;-1.644;2023-02-28T05:04:37;8.80;65.10
12622;DHT22;6376;48.182;-1.644;2023-02-28T05:07:03;8.70;64.20
12622;DHT22;6376;48.182;-1.644;2023-02-28T05:09:29;8.70;64.30
12622;DHT22;6376;48.182;-1.644;2023-02-28T05:11:55;8.70;64.30
12622;DHT22;6376;48.182;-1.644;2023-02-28T05:14:21;8.70;64.30
12622;DHT22;6376;48.182;-1.644;2023-02-28T05:16:47;8.70;64.20
12622;DHT22;6376;48.182;-1.644;2023-02-28T05:19:13;8.70;64.20
12622;DHT22;6376;48.182;-1.644;2023-02-28T05:21:48;8.70;64.30
12622;DHT22;6376;48.182;-1.644;2023-02-28T05:24:14;8.70;64.30
12622;DHT22;6376;48.182;-1.644;2023-02-28T05:26:42;8.70;64.30
12622;DHT22;6376;48.182;-1.644;2023-02-28T05:29:09;8.70;64.30
12622;DHT22;6376;48.182;-1.644;2023-02-28T05:31:35;8.70;64.30
12622;DHT22;6376;48.182;-1.644;2023-02-28T05:34:01;8.70;64.40
12622;DHT22;6376;48.182;-1.644;2023-02-28T05:36:27;8.70;64.40
12622;DHT22;6376;48.182;-1.644;2023-02-28T05:38:52;8.70;64.40
12622;DHT22;6376;48.182;-1.644;2023-02-28T05:41:19;8.70;64.40
12622;DHT22;6376;48.182;-1.644;2023-02-28T05:43:45;8.70;64.30
12622;DHT22;6376;48.182;-1.644;2023-02-28T05:46:12;8.70;64.40
12622;DHT22;6376;48.182;-1.644;2023-02-28T05:48:38;8.70;64.40
12622;DHT22;6376;48.182;-1.644;2023-02-28T05:51:05;8.70;64.40
12622;DHT22;6376;48.182;-1.644;2023-02-28T05:53:32;8.60;64.40
12622;DHT22;6376;48.182;-1.644;2023-02-28T05:55:58;8.60;64.40
12622;DHT22;6376;48.182;-1.644;2023-02-28T05:58:24;8.70;64.40
12622;DHT22;6376;48.182;-1.644;2023-02-28T06:00:54;8.70;64.40
12622;DHT22;6376;48.182;-1.644;2023-02-28T06:03:20;8.70;64.40
12622;DHT22;6376;48.182;-1.644;2023-02-28T06:05:45;8.70;64.40
12622;DHT22;6376;48.182;-1.644;2023-02-28T06:08:11;8.60;64.40
12622;DHT22;6376;48.182;-1.644;2023-02-28T06:10:37;8.60;64.40
12622;DHT22;6376;48.182;-1.644;2023-02-28T06:13:03;8.60;64.40
12622;DHT22;6376;48.182;-1.644;2023-02-28T06:15:29;8.70;64.40
12622;DHT22;6376;48.182;-1.644;2023-02-28T06:17:56;8.60;64.40
12622;DHT22;6376;48.182;-1.644;2023-02-28T06:20:23;8.60;64.40
12622;DHT22;6376;48.182;-1.644;2023-02-28T06:22:49;8.60;64.40
12622;DHT22;6376;48.182;-1.644;2023-02-28T06:25:17;8.60;64.50
12622;DHT22;6376;48.182;-1.644;2023-02-28T06:27:43;8.60;64.40
12622;DHT22;6376;48.182;-1.644;2023-02-28T06:30:10;8.60;64.50
12622;DHT22;6376;48.182;-1.644;2023-02-28T06:32:36;8.60;64.40
12622;DHT22;6376;48.182;-1.644;2023-02-28T06:35:02;8.60;64.40
12622;DHT22;6376;48.182;-1.644;2023-02-28T06:37:28;8.60;64.50
12622;DHT22;6376;48.182;-1.644;2023-02-28T06:39:54;8.60;64.40
12622;DHT22;6376;48.182;-1.644;2023-02-28T06:42:22;8.60;64.40
12622;DHT22;6376;48.182;-1.644;2023-02-28T06:44:51;8.60;64.40
12622;DHT22;6376;48.182;-1.644;2023-02-28T06:47:16;8.60;64.50
12622;DHT22;6376;48.182;-1.644;2023-02-28T06:49:42;8.60;64.50
12622;DHT22;6376;48.182;-1.644;2023-02-28T06:52:10;8.60;64.50
12622;DHT22;6376;48.182;-1.644;2023-02-28T06:54:36;8.60;64.50
12622;DHT22;6376;48.182;-1.644;2023-02-28T06:57:02;8.60;64.50
12622;DHT22;6376;48.182;-1.644;2023-02-28T06:59:28;8.60;64.50
12622;DHT22;6376;48.182;-1.644;2023-02-28T07:01:54;8.60;64.50
12622;DHT22;6376;48.182;-1.644;2023-02-28T07:04:20;8.60;64.40
12622;DHT22;6376;48.182;-1.644;2023-02-28T07:06:46;8.60;64.40
12622;DHT22;6376;48.182;-1.644;2023-02-28T07:09:12;8.60;64.40
12622;DHT22;6376;48.182;-1.644;2023-02-28T07:11:39;8.60;64.40
12622;DHT22;6376;48.182;-1.644;2023-02-28T07:14:06;8.60;64.50
12622;DHT22;6376;48.182;-1.644;2023-02-28T07:16:32;8.60;64.50
12622;DHT22;6376;48.182;-1.644;2023-02-28T07:18:58;8.60;64.50
12622;DHT22;6376;48.182;-1.644;2023-02-28T07:21:24;8.60;64.50
12622;DHT22;6376;48.182;-1.644;2023-02-28T07:23:49;8.60;64.50
12622;DHT22;6376;48.182;-1.644;2023-02-28T07:26:16;8.60;64.40
12622;DHT22;6376;48.182;-1.644;2023-02-28T07:28:43;8.60;64.40
12622;DHT22;6376;48.182;-1.644;2023-02-28T07:31:10;8.60;64.40
12622;DHT22;6376;48.182;-1.644;2023-02-28T07:33:36;8.60;64.40
12622;DHT22;6376;48.182;-1.644;2023-02-28T07:36:28;8.60;64.40
12622;DHT22;6376;48.182;-1.644;2023-02-28T07:38:54;8.60;64.40
12622;DHT22;6376;48.182;-1.644;2023-02-28T07:41:21;8.60;64.50
12622;DHT22;6376;48.182;-1.644;2023-02-28T07:43:47;8.60;64.40
12622;DHT22;6376;48.182;-1.644;2023-02-28T07:46:15;8.60;64.30
12622;DHT22;6376;48.182;-1.644;2023-02-28T07:48:41;8.60;64.20
12622;DHT22;6376;48.182;-1.644;2023-02-28T07:51:07;8.60;64.20
12622;DHT22;6376;48.182;-1.644;2023-02-28T07:53:33;8.70;64.00
12622;DHT22;6376;48.182;-1.644;2023-02-28T07:56:01;8.90;63.10
12622;DHT22;6376;48.182;-1.644;2023-02-28T07:58:28;8.80;63.30
12622;DHT22;6376;48.182;-1.644;2023-02-28T08:00:55;8.80;63.50
12622;DHT22;6376;48.182;-1.644;2023-02-28T08:03:22;8.70;63.60
12622;DHT22;6376;48.182;-1.644;2023-02-28T08:05:48;8.70;63.80
12622;DHT22;6376;48.182;-1.644;2023-02-28T08:08:15;8.70;64.00
12622;DHT22;6376;48.182;-1.644;2023-02-28T08:10:41;8.60;64.10
12622;DHT22;6376;48.182;-1.644;2023-02-28T08:13:07;8.60;64.00
12622;DHT22;6376;48.182;-1.644;2023-02-28T08:15:32;8.70;64.00
12622;DHT22;6376;48.182;-1.644;2023-02-28T08:17:58;8.70;64.00
12622;DHT22;6376;48.182;-1.644;2023-02-28T08:20:25;8.70;64.00
12622;DHT22;6376;48.182;-1.644;2023-02-28T08:22:51;8.90;63.10
12622;DHT22;6376;48.182;-1.644;2023-02-28T08:25:17;8.80;63.20
12622;DHT22;6376;48.182;-1.644;2023-02-28T08:27:43;8.80;63.50
12622;DHT22;6376;48.182;-1.644;2023-02-28T08:30:13;8.80;63.60
12622;DHT22;6376;48.182;-1.644;2023-02-28T08:32:39;8.80;63.40
12622;DHT22;6376;48.182;-1.644;2023-02-28T08:35:06;8.90;63.10
12622;DHT22;6376;48.182;-1.644;2023-02-28T08:37:32;9.10;62.70
12622;DHT22;6376;48.182;-1.644;2023-02-28T08:39:57;9.10;63.10
12622;DHT22;6376;48.182;-1.644;2023-02-28T08:42:23;9.20;63.00
12622;DHT22;6376;48.182;-1.644;2023-02-28T08:44:49;9.80;61.30
12622;DHT22;6376;48.182;-1.644;2023-02-28T08:47:15;10.20;60.00
12622;DHT22;6376;48.182;-1.644;2023-02-28T08:49:41;10.30;59.50
12622;DHT22;6376;48.182;-1.644;2023-02-28T08:52:06;10.40;59.20
12622;DHT22;6376;48.182;-1.644;2023-02-28T08:54:32;10.40;59.00
12622;DHT22;6376;48.182;-1.644;2023-02-28T08:56:59;10.40;59.00
12622;DHT22;6376;48.182;-1.644;2023-02-28T08:59:25;10.30;59.10
12622;DHT22;6376;48.182;-1.644;2023-02-28T09:01:50;10.30;59.30
12622;DHT22;6376;48.182;-1.644;2023-02-28T09:04:16;10.20;59.40
12622;DHT22;6376;48.182;-1.644;2023-02-28T09:06:41;10.20;59.50
12622;DHT22;6376;48.182;-1.644;2023-02-28T09:09:07;10.20;59.40
12622;DHT22;6376;48.182;-1.644;2023-02-28T09:11:34;10.20;59.30
12622;DHT22;6376;48.182;-1.644;2023-02-28T09:14:01;10.20;59.30
12622;DHT22;6376;48.182;-1.644;2023-02-28T09:16:29;10.30;59.10
12622;DHT22;6376;48.182;-1.644;2023-02-28T09:18:55;10.40;58.90
12622;DHT22;6376;48.182;-1.644;2023-02-28T09:21:20;10.40;58.70
12622;DHT22;6376;48.182;-1.644;2023-02-28T09:23:48;10.50;58.60
12622;DHT22;6376;48.182;-1.644;2023-02-28T09:26:23;10.60;58.60
12622;DHT22;6376;48.182;-1.644;2023-02-28T09:28:49;10.60;58.40
12622;DHT22;6376;48.182;-1.644;2023-02-28T09:31:18;10.70;58.40
12622;DHT22;6376;48.182;-1.644;2023-02-28T09:33:46;10.80;58.30
12622;DHT22;6376;48.182;-1.644;2023-02-28T09:36:12;10.80;58.20
12622;DHT22;6376;48.182;-1.644;2023-02-28T09:38:38;10.90;58.00
12622;DHT22;6376;48.182;-1.644;2023-02-28T09:41:14;10.90;57.90
12622;DHT22;6376;48.182;-1.644;2023-02-28T09:43:44;11.00;57.70
12622;DHT22;6376;48.182;-1.644;2023-02-28T09:48:54;11.10;57.30
12622;DHT22;6376;48.182;-1.644;2023-02-28T09:51:53;11.20;57.20
12622;DHT22;6376;48.182;-1.644;2023-02-28T09:54:19;11.30;57.10
12622;DHT22;6376;48.182;-1.644;2023-02-28T09:57:04;11.30;56.90
12622;DHT22;6376;48.182;-1.644;2023-02-28T10:04:54;11.50;56.50
12622;DHT22;6376;48.182;-1.644;2023-02-28T10:16:15;11.70;55.90
12622;DHT22;6376;48.182;-1.644;2023-02-28T10:18:49;11.80;55.90
12622;DHT22;6376;48.182;-1.644;2023-02-28T10:21:43;11.80;55.80
12622;DHT22;6376;48.182;-1.644;2023-02-28T10:24:21;11.80;55.60
12622;DHT22;6376;48.182;-1.644;2023-02-28T10:26:48;11.90;55.60
12622;DHT22;6376;48.182;-1.644;2023-02-28T10:29:16;11.90;55.40
12622;DHT22;6376;48.182;-1.644;2023-02-28T10:31:42;11.90;55.40
12622;DHT22;6376;48.182;-1.644;2023-02-28T10:34:12;12.00;55.30
12622;DHT22;6376;48.182;-1.644;2023-02-28T10:36:38;12.00;55.20
12622;DHT22;6376;48.182;-1.644;2023-02-28T10:42:03;12.10;54.90
12622;DHT22;6376;48.182;-1.644;2023-02-28T10:44:29;12.20;54.60
12622;DHT22;6376;48.182;-1.644;2023-02-28T10:46:55;12.20;54.30
12622;DHT22;6376;48.182;-1.644;2023-02-28T10:49:28;12.30;54.30
12622;DHT22;6376;48.182;-1.644;2023-02-28T10:52:00;12.30;54.20
12622;DHT22;6376;48.182;-1.644;2023-02-28T10:54:34;12.30;54.50
12622;DHT22;6376;48.182;-1.644;2023-02-28T10:57:17;12.40;54.30
12622;DHT22;6376;48.182;-1.644;2023-02-28T10:59:44;12.40;54.30
12622;DHT22;6376;48.182;-1.644;2023-02-28T11:02:33;12.50;54.20
12622;DHT22;6376;48.182;-1.644;2023-02-28T11:04:58;12.40;54.10
12622;DHT22;6376;48.182;-1.644;2023-02-28T11:07:26;12.50;54.40
12622;DHT22;6376;48.182;-1.644;2023-02-28T11:09:55;12.50;54.30
12622;DHT22;6376;48.182;-1.644;2023-02-28T11:12:26;12.50;54.30
12622;DHT22;6376;48.182;-1.644;2023-02-28T11:14:58;12.50;54.10
12622;DHT22;6376;48.182;-1.644;2023-02-28T11:17:28;12.50;53.90
12622;DHT22;6376;48.182;-1.644;2023-02-28T11:20:04;12.50;53.70
12622;DHT22;6376;48.182;-1.644;2023-02-28T11:22:36;12.50;54.20
12622;DHT22;6376;48.182;-1.644;2023-02-28T11:25:09;12.60;54.30
12622;DHT22;6376;48.182;-1.644;2023-02-28T11:36:22;12.70;53.90
12622;DHT22;6376;48.182;-1.644;2023-02-28T11:38:53;12.70;53.70
12622;DHT22;6376;48.182;-1.644;2023-02-28T11:47:04;12.80;53.90
12622;DHT22;6376;48.182;-1.644;2023-02-28T11:49:37;12.70;54.30
12622;DHT22;6376;48.182;-1.644;2023-02-28T11:52:35;12.50;54.50
12622;DHT22;6376;48.182;-1.644;2023-02-28T11:57:58;12.20;55.40
12622;DHT22;6376;48.182;-1.644;2023-02-28T12:01:06;12.00;55.50
12622;DHT22;6376;48.182;-1.644;2023-02-28T12:06:15;11.80;55.90
12622;DHT22;6376;48.182;-1.644;2023-02-28T12:11:56;11.70;56.30
12622;DHT22;6376;48.182;-1.644;2023-02-28T12:17:27;11.60;56.70
12622;DHT22;6376;48.182;-1.644;2023-02-28T12:23:10;11.50;56.40
12622;DHT22;6376;48.182;-1.644;2023-02-28T12:29:00;11.50;55.70
12622;DHT22;6376;48.182;-1.644;2023-02-28T12:31:30;11.30;55.90
12622;DHT22;6376;48.182;-1.644;2023-02-28T12:34:10;11.30;57.10
12622;DHT22;6376;48.182;-1.644;2023-02-28T12:36:37;11.40;57.10
12622;DHT22;6376;48.182;-1.644;2023-02-28T12:39:28;11.30;56.50
12622;DHT22;6376;48.182;-1.644;2023-02-28T12:42:07;11.30;56.80
12622;DHT22;6376;48.182;-1.644;2023-02-28T12:44:40;11.30;56.80
12622;DHT22;6376;48.182;-1.644;2023-02-28T12:47:16;11.30;56.90
12622;DHT22;6376;48.182;-1.644;2023-02-28T12:52:17;11.30;57.30
12622;DHT22;6376;48.182;-1.644;2023-02-28T12:55:00;11.20;56.90
12622;DHT22;6376;48.182;-1.644;2023-02-28T13:00:18;11.20;57.20
12622;DHT22;6376;48.182;-1.644;2023-02-28T13:05:59;11.20;56.90
12622;DHT22;6376;48.182;-1.644;2023-02-28T13:11:30;11.00;57.30
12622;DHT22;6376;48.182;-1.644;2023-02-28T13:14:03;11.00;57.70
12622;DHT22;6376;48.182;-1.644;2023-02-28T13:19:20;11.10;57.70
12622;DHT22;6376;48.182;-1.644;2023-02-28T13:21:47;11.10;57.40
12622;DHT22;6376;48.182;-1.644;2023-02-28T13:29:32;11.10;57.80
12622;DHT22;6376;48.182;-1.644;2023-02-28T13:37:44;11.10;57.60
12622;DHT22;6376;48.182;-1.644;2023-02-28T13:42:46;11.00;57.40
12622;DHT22;6376;48.182;-1.644;2023-02-28T13:47:45;10.90;57.70
12622;DHT22;6376;48.182;-1.644;2023-02-28T13:50:35;10.90;58.10
12622;DHT22;6376;48.182;-1.644;2023-02-28T13:56:09;10.90;58.20
12622;DHT22;6376;48.182;-1.644;2023-02-28T13:58:43;10.90;58.20
12622;DHT22;6376;48.182;-1.644;2023-02-28T14:06:36;10.80;58.30
12622;DHT22;6376;48.182;-1.644;2023-02-28T14:11:39;10.80;58.40
12622;DHT22;6376;48.182;-1.644;2023-02-28T14:14:07;10.80;58.50
12622;DHT22;6376;48.182;-1.644;2023-02-28T14:19:26;10.80;58.60
12622;DHT22;6376;48.182;-1.644;2023-02-28T14:30:36;10.70;58.80
12622;DHT22;6376;48.182;-1.644;2023-02-28T14:36:27;10.70;59.00
12622;DHT22;6376;48.182;-1.644;2023-02-28T14:38:59;10.60;59.00
12622;DHT22;6376;48.182;-1.644;2023-02-28T14:41:35;10.60;59.10
12622;DHT22;6376;48.182;-1.644;2023-02-28T14:44:12;10.60;59.20
12622;DHT22;6376;48.182;-1.644;2023-02-28T14:46:40;10.60;59.20
12622;DHT22;6376;48.182;-1.644;2023-02-28T14:49:58;10.60;59.30
12622;DHT22;6376;48.182;-1.644;2023-02-28T14:52:16;10.60;59.40
12622;DHT22;6376;48.182;-1.644;2023-02-28T14:54:56;10.50;59.50
12622;DHT22;6376;48.182;-1.644;2023-02-28T15:00:00;10.50;59.50
12622;DHT22;6376;48.182;-1.644;2023-02-28T15:02:30;10.50;59.60
12622;DHT22;6376;48.182;-1.644;2023-02-28T15:04:59;10.50;59.60
12622;DHT22;6376;48.182;-1.644;2023-02-28T15:07:26;10.50;59.70
12622;DHT22;6376;48.182;-1.644;2023-02-28T15:10:26;10.50;59.70
12622;DHT22;6376;48.182;-1.644;2023-02-28T15:12:57;10.50;59.80
12622;DHT22;6376;48.182;-1.644;2023-02-28T15:20:48;10.50;60.00
12622;DHT22;6376;48.182;-1.644;2023-02-28T15:23:15;10.40;60.10
12622;DHT22;6376;48.182;-1.644;2023-02-28T15:25:41;10.40;60.20
12622;DHT22;6376;48.182;-1.644;2023-02-28T15:28:15;10.40;60.20
12622;DHT22;6376;48.182;-1.644;2023-02-28T15:31:00;10.40;60.40
12622;DHT22;6376;48.182;-1.644;2023-02-28T15:33:30;10.40;60.40
12622;DHT22;6376;48.182;-1.644;2023-02-28T15:36:10;10.40;60.50
12622;DHT22;6376;48.182;-1.644;2023-02-28T15:38:36;10.40;60.60
12622;DHT22;6376;48.182;-1.644;2023-02-28T15:41:03;10.40;60.80
12622;DHT22;6376;48.182;-1.644;2023-02-28T15:43:35;10.40;60.80
12622;DHT22;6376;48.182;-1.644;2023-02-28T15:46:10;10.40;60.80
12622;DHT22;6376;48.182;-1.644;2023-02-28T15:48:56;10.40;60.90
12622;DHT22;6376;48.182;-1.644;2023-02-28T15:51:32;10.30;61.00
12622;DHT22;6376;48.182;-1.644;2023-02-28T15:54:22;10.30;61.10
12622;DHT22;6376;48.182;-1.644;2023-02-28T15:56:52;10.30;61.10
12622;DHT22;6376;48.182;-1.644;2023-02-28T15:59:28;10.30;61.20
12622;DHT22;6376;48.182;-1.644;2023-02-28T16:02:14;10.30;61.30
12622;DHT22;6376;48.182;-1.644;2023-02-28T16:05:12;10.30;61.30
12622;DHT22;6376;48.182;-1.644;2023-02-28T16:07:43;10.30;61.50
12622;DHT22;6376;48.182;-1.644;2023-02-28T16:10:12;10.30;61.50
12622;DHT22;6376;48.182;-1.644;2023-02-28T16:12:40;10.30;61.60
12622;DHT22;6376;48.182;-1.644;2023-02-28T16:15:14;10.30;61.60
12622;DHT22;6376;48.182;-1.644;2023-02-28T16:17:42;10.30;61.70
12622;DHT22;6376;48.182;-1.644;2023-02-28T16:20:16;10.30;61.80
12622;DHT22;6376;48.182;-1.644;2023-02-28T16:22:42;10.30;61.90
12622;DHT22;6376;48.182;-1.644;2023-02-28T16:25:16;10.30;61.90
12622;DHT22;6376;48.182;-1.644;2023-02-28T16:27:44;10.30;61.90
12622;DHT22;6376;48.182;-1.644;2023-02-28T16:30:21;10.30;62.80
12622;DHT22;6376;48.182;-1.644;2023-02-28T16:32:47;10.30;62.00
12622;DHT22;6376;48.182;-1.644;2023-02-28T16:35:14;10.20;62.10
12622;DHT22;6376;48.182;-1.644;2023-02-28T16:37:40;10.30;62.20
12622;DHT22;6376;48.182;-1.644;2023-02-28T16:40:09;10.30;62.20
12622;DHT22;6376;48.182;-1.644;2023-02-28T16:42:38;10.20;62.20
12622;DHT22;6376;48.182;-1.644;2023-02-28T16:45:04;10.30;62.30
12622;DHT22;6376;48.182;-1.644;2023-02-28T16:47:31;10.20;62.30
12622;DHT22;6376;48.182;-1.644;2023-02-28T16:49:58;10.20;62.30
12622;DHT22;6376;48.182;-1.644;2023-02-28T16:52:23;10.20;62.40
12622;DHT22;6376;48.182;-1.644;2023-02-28T16:54:49;10.20;62.40
12622;DHT22;6376;48.182;-1.644;2023-02-28T16:57:20;10.20;62.50
12622;DHT22;6376;48.182;-1.644;2023-02-28T16:59:47;10.20;62.50
12622;DHT22;6376;48.182;-1.644;2023-02-28T17:02:15;10.20;62.60
12622;DHT22;6376;48.182;-1.644;2023-02-28T17:04:42;10.20;62.60
12622;DHT22;6376;48.182;-1.644;2023-02-28T17:07:12;10.20;62.70
12622;DHT22;6376;48.182;-1.644;2023-02-28T17:09:38;10.20;62.70
12622;DHT22;6376;48.182;-1.644;2023-02-28T17:12:04;10.20;62.80
12622;DHT22;6376;48.182;-1.644;2023-02-28T17:14:30;10.20;62.80
12622;DHT22;6376;48.182;-1.644;2023-02-28T17:16:56;10.20;62.80
12622;DHT22;6376;48.182;-1.644;2023-02-28T17:19:22;10.20;62.90
12622;DHT22;6376;48.182;-1.644;2023-02-28T17:21:47;10.20;63.00
12622;DHT22;6376;48.182;-1.644;2023-02-28T17:24:13;10.20;63.00
12622;DHT22;6376;48.182;-1.644;2023-02-28T17:26:40;10.20;63.00
12622;DHT22;6376;48.182;-1.644;2023-02-28T17:29:17;10.20;63.00
12622;DHT22;6376;48.182;-1.644;2023-02-28T17:31:43;10.20;63.10
12622;DHT22;6376;48.182;-1.644;2023-02-28T17:34:08;10.20;63.10
12622;DHT22;6376;48.182;-1.644;2023-02-28T17:36:35;10.20;63.10
12622;DHT22;6376;48.182;-1.644;2023-02-28T17:39:03;10.20;63.20
12622;DHT22;6376;48.182;-1.644;2023-02-28T17:41:29;10.20;63.30
12622;DHT22;6376;48.182;-1.644;2023-02-28T17:43:56;10.20;63.30
12622;DHT22;6376;48.182;-1.644;2023-02-28T17:46:23;10.10;63.30
12622;DHT22;6376;48.182;-1.644;2023-02-28T17:48:50;10.10;63.30
12622;DHT22;6376;48.182;-1.644;2023-02-28T17:51:18;10.10;63.40
12622;DHT22;6376;48.182;-1.644;2023-02-28T17:53:44;10.10;63.50
12622;DHT22;6376;48.182;-1.644;2023-02-28T17:56:19;10.10;63.60
12622;DHT22;6376;48.182;-1.644;2023-02-28T17:58:45;10.10;63.70
12622;DHT22;6376;48.182;-1.644;2023-02-28T18:01:10;10.10;63.80
12622;DHT22;6376;48.182;-1.644;2023-02-28T18:03:37;10.10;63.80
12622;DHT22;6376;48.182;-1.644;2023-02-28T18:06:03;10.10;63.80
12622;DHT22;6376;48.182;-1.644;2023-02-28T18:08:29;10.10;63.80
12622;DHT22;6376;48.182;-1.644;2023-02-28T18:10:56;10.20;63.80
12622;DHT22;6376;48.182;-1.644;2023-02-28T18:13:21;10.20;63.70
12622;DHT22;6376;48.182;-1.644;2023-02-28T18:15:47;10.30;64.30
12622;DHT22;6376;48.182;-1.644;2023-02-28T18:18:13;10.40;63.60
12622;DHT22;6376;48.182;-1.644;2023-02-28T18:20:41;10.40;63.50
12622;DHT22;6376;48.182;-1.644;2023-02-28T18:23:06;10.50;63.40
12622;DHT22;6376;48.182;-1.644;2023-02-28T18:25:32;10.60;63.40